sensor_id;sensor_type;location;lat;lon;timestamp;temperature;humidity
40932;DHT22;36257;46.052;12.540;2023-11-19T00:00:35;6.90;84.20
40932;DHT22;36257;46.052;12.540;2023-11-19T00:03:01;6.80;84.40
40932;DHT22;36257;46.052;12.540;2023-11-19T00:05:27;6.90;84.40
40932;DHT22;36257;46.052;12.540;2023-11-19T00:07:56;6.90;84.40
40932;DHT22;36257;46.052;12.540;2023-11-19T00:10:21;6.90;84.60
40932;DHT22;36257;46.052;12.540;2023-11-19T00:12:48;6.90;84.40
40932;DHT22;36257;46.052;12.540;2023-11-19T00:15:15;6.90;84.30
40932;DHT22;36257;46.052;12.540;2023-11-19T00:17:44;7.00;83.90
40932;DHT22;36257;46.052;12.540;2023-11-19T00:20:17;7.00;83.60
40932;DHT22;36257;46.052;12.540;2023-11-19T00:22:43;7.10;83.60
40932;DHT22;36257;46.052;12.540;2023-11-19T00:25:09;7.10;83.50
40932;DHT22;36257;46.052;12.540;2023-11-19T00:27:35;7.10;83.60
40932;DHT22;36257;46.052;12.540;2023-11-19T00:30:04;7.10;83.80
40932;DHT22;36257;46.052;12.540;2023-11-19T00:32:31;7.10;84.20
40932;DHT22;36257;46.052;12.540;2023-11-19T00:34:57;7.10;84.30
40932;DHT22;36257;46.052;12.540;2023-11-19T00:37:23;7.10;84.60
40932;DHT22;36257;46.052;12.540;2023-11-19T00:39:49;7.10;84.50
40932;DHT22;36257;46.052;12.540;2023-11-19T00:42:14;7.00;84.50
40932;DHT22;36257;46.052;12.540;2023-11-19T00:44:40;7.10;84.50
40932;DHT22;36257;46.052;12.540;2023-11-19T00:47:06;7.10;84.70
40932;DHT22;36257;46.052;12.540;2023-11-19T00:49:32;7.10;85.20
40932;DHT22;36257;46.052;12.540;2023-11-19T00:51:59;7.00;85.50
40932;DHT22;36257;46.052;12.540;2023-11-19T00:54:25;7.00;86.00
40932;DHT22;36257;46.052;12.540;2023-11-19T00:56:54;6.90;86.40
40932;DHT22;36257;46.052;12.540;2023-11-19T00:59:20;6.90;86.70
40932;DHT22;36257;46.052;12.540;2023-11-19T01:01:46;6.90;86.60
40932;DHT22;36257;46.052;12.540;2023-11-19T01:04:17;6.90;86.10
40932;DHT22;36257;46.052;12.540;2023-11-19T01:06:42;6.90;85.70
40932;DHT22;36257;46.052;12.540;2023-11-19T01:09:08;6.90;85.50
40932;DHT22;36257;46.052;12.540;2023-11-19T01:11:34;6.90;85.40
40932;DHT22;36257;46.052;12.540;2023-11-19T01:14:00;6.90;85.60
40932;DHT22;36257;46.052;12.540;2023-11-19T01:16:26;6.90;86.20
40932;DHT22;36257;46.052;12.540;2023-11-19T01:18:52;6.90;86.60
40932;DHT22;36257;46.052;12.540;2023-11-19T01:21:18;7.00;87.00
40932;DHT22;36257;46.052;12.540;2023-11-19T01:23:44;6.90;87.10
40932;DHT22;36257;46.052;12.540;2023-11-19T01:26:10;6.90;86.90
40932;DHT22;36257;46.052;12.540;2023-11-19T01:28:36;6.90;86.80
40932;DHT22;36257;46.052;12.540;2023-11-19T01:31:02;6.90;86.90
40932;DHT22;36257;46.052;12.540;2023-11-19T01:33:29;6.90;86.70
40932;DHT22;36257;46.052;12.540;2023-11-19T01:35:55;6.90;86.70
40932;DHT22;36257;46.052;12.540;2023-11-19T01:38:22;6.90;86.60
40932;DHT22;36257;46.052;12.540;2023-11-19T01:40:48;7.00;86.60
40932;DHT22;36257;46.052;12.540;2023-11-19T01:43:37;7.00;86.80
40932;DHT22;36257;46.052;12.540;2023-11-19T01:46:05;6.90;87.10
40932;DHT22;36257;46.052;12.540;2023-11-19T01:48:34;6.90;87.40
40932;DHT22;36257;46.052;12.540;2023-11-19T01:51:06;6.90;87.70
40932;DHT22;36257;46.052;12.540;2023-11-19T01:53:32;6.90;87.50
40932;DHT22;36257;46.052;12.540;2023-11-19T01:55:59;6.90;87.50
40932;DHT22;36257;46.052;12.540;2023-11-19T01:58:25;6.90;87.60
40932;DHT22;36257;46.052;12.540;2023-11-19T02:00:51;6.90;87.70
40932;DHT22;36257;46.052;12.540;2023-11-19T02:03:17;6.90;88.10
40932;DHT22;36257;46.052;12.540;2023-11-19T02:05:44;6.90;88.40
40932;DHT22;36257;46.052;12.540;2023-11-19T02:08:12;6.90;88.70
40932;DHT22;36257;46.052;12.540;2023-11-19T02:10:39;6.90;88.70
40932;DHT22;36257;46.052;12.540;2023-11-19T02:13:04;6.90;88.90
40932;DHT22;36257;46.052;12.540;2023-11-19T02:15:32;6.90;88.80
40932;DHT22;36257;46.052;12.540;2023-11-19T02:18:20;6.90;88.80
40932;DHT22;36257;46.052;12.540;2023-11-19T02:20:50;6.90;88.70
40932;DHT22;36257;46.052;12.540;2023-11-19T02:23:18;6.90;88.60
40932;DHT22;36257;46.052;12.540;2023-11-19T02:28:39;6.90;88.50
40932;DHT22;36257;46.052;12.540;2023-11-19T02:31:05;6.90;88.60
40932;DHT22;36257;46.052;12.540;2023-11-19T02:33:35;7.00;88.70
40932;DHT22;36257;46.052;12.540;2023-11-19T02:36:02;7.00;88.90
40932;DHT22;36257;46.052;12.540;2023-11-19T02:38:29;7.00;88.90
40932;DHT22;36257;46.052;12.540;2023-11-19T02:40:56;7.00;89.20
40932;DHT22;36257;46.052;12.540;2023-11-19T02:43:22;7.00;89.10
40932;DHT22;36257;46.052;12.540;2023-11-19T02:45:48;7.00;89.00
40932;DHT22;36257;46.052;12.540;2023-11-19T02:48:14;7.00;88.10
40932;DHT22;36257;46.052;12.540;2023-11-19T02:50:41;7.10;87.80
40932;DHT22;36257;46.052;12.540;2023-11-19T02:53:07;7.10;88.00
40932;DHT22;36257;46.052;12.540;2023-11-19T02:55:33;7.10;88.10
40932;DHT22;36257;46.052;12.540;2023-11-19T02:58:04;7.10;88.10
40932;DHT22;36257;46.052;12.540;2023-11-19T03:00:35;7.10;88.10
40932;DHT22;36257;46.052;12.540;2023-11-19T03:03:03;7.20;88.10
40932;DHT22;36257;46.052;12.540;2023-11-19T03:05:43;7.20;88.10
40932;DHT22;36257;46.052;12.540;2023-11-19T03:08:10;7.20;88.10
40932;DHT22;36257;46.052;12.540;2023-11-19T03:10:35;7.20;88.50
40932;DHT22;36257;46.052;12.540;2023-11-19T03:13:01;7.20;89.40
40932;DHT22;36257;46.052;12.540;2023-11-19T03:15:27;7.30;89.40
40932;DHT22;36257;46.052;12.540;2023-11-19T03:17:53;7.20;89.50
40932;DHT22;36257;46.052;12.540;2023-11-19T03:20:19;7.20;89.70
40932;DHT22;36257;46.052;12.540;2023-11-19T03:22:46;7.20;89.30
40932;DHT22;36257;46.052;12.540;2023-11-19T03:25:12;7.20;88.80
40932;DHT22;36257;46.052;12.540;2023-11-19T03:27:39;7.20;88.90
40932;DHT22;36257;46.052;12.540;2023-11-19T03:30:05;7.30;88.90
40932;DHT22;36257;46.052;12.540;2023-11-19T03:32:32;7.20;88.50
40932;DHT22;36257;46.052;12.540;2023-11-19T03:34:58;7.20;89.00
40932;DHT22;36257;46.052;12.540;2023-11-19T03:37:25;7.30;88.90
40932;DHT22;36257;46.052;12.540;2023-11-19T03:39:51;7.30;89.50
40932;DHT22;36257;46.052;12.540;2023-11-19T03:42:19;7.30;90.10
40932;DHT22;36257;46.052;12.540;2023-11-19T03:44:46;7.30;90.70
40932;DHT22;36257;46.052;12.540;2023-11-19T03:47:11;7.20;90.70
40932;DHT22;36257;46.052;12.540;2023-11-19T03:49:37;7.30;90.30
40932;DHT22;36257;46.052;12.540;2023-11-19T03:52:03;7.30;89.90
40932;DHT22;36257;46.052;12.540;2023-11-19T03:54:28;7.30;90.10
40932;DHT22;36257;46.052;12.540;2023-11-19T03:56:54;7.20;90.30
40932;DHT22;36257;46.052;12.540;2023-11-19T03:59:20;7.10;90.60
40932;DHT22;36257;46.052;12.540;2023-11-19T04:01:46;7.20;90.40
40932;DHT22;36257;46.052;12.540;2023-11-19T04:04:11;7.10;90.30
40932;DHT22;36257;46.052;12.540;2023-11-19T04:06:37;7.10;90.30
40932;DHT22;36257;46.052;12.540;2023-11-19T04:09:03;7.20;90.30
40932;DHT22;36257;46.052;12.540;2023-11-19T04:11:29;7.10;90.70
40932;DHT22;36257;46.052;12.540;2023-11-19T04:13:54;7.00;90.90
40932;DHT22;36257;46.052;12.540;2023-11-19T04:16:26;7.00;91.00
40932;DHT22;36257;46.052;12.540;2023-11-19T04:18:53;6.90;91.30
40932;DHT22;36257;46.052;12.540;2023-11-19T04:21:19;6.90;92.00
40932;DHT22;36257;46.052;12.540;2023-11-19T04:23:44;6.90;92.10
40932;DHT22;36257;46.052;12.540;2023-11-19T04:26:10;6.90;91.60
40932;DHT22;36257;46.052;12.540;2023-11-19T04:28:35;6.90;91.60
40932;DHT22;36257;46.052;12.540;2023-11-19T04:31:01;6.90;91.70
40932;DHT22;36257;46.052;12.540;2023-11-19T04:33:28;6.80;91.60
40932;DHT22;36257;46.052;12.540;2023-11-19T04:35:54;6.80;91.60
40932;DHT22;36257;46.052;12.540;2023-11-19T04:38:20;6.70;91.40
40932;DHT22;36257;46.052;12.540;2023-11-19T04:40:45;6.70;91.30
40932;DHT22;36257;46.052;12.540;2023-11-19T04:43:11;6.70;91.30
40932;DHT22;36257;46.052;12.540;2023-11-19T04:45:38;6.70;91.20
40932;DHT22;36257;46.052;12.540;2023-11-19T04:48:05;6.70;90.50
40932;DHT22;36257;46.052;12.540;2023-11-19T04:50:31;6.70;90.50
40932;DHT22;36257;46.052;12.540;2023-11-19T04:52:56;6.60;90.20
40932;DHT22;36257;46.052;12.540;2023-11-19T04:55:22;6.60;90.00
40932;DHT22;36257;46.052;12.540;2023-11-19T04:57:47;6.60;90.30
40932;DHT22;36257;46.052;12.540;2023-11-19T05:00:13;6.50;90.60
40932;DHT22;36257;46.052;12.540;2023-11-19T05:02:39;6.40;90.50
40932;DHT22;36257;46.052;12.540;2023-11-19T05:05:05;6.40;90.20
40932;DHT22;36257;46.052;12.540;2023-11-19T05:07:31;6.50;90.10
40932;DHT22;36257;46.052;12.540;2023-11-19T05:09:56;6.50;90.10
40932;DHT22;36257;46.052;12.540;2023-11-19T05:12:22;6.50;90.50
40932;DHT22;36257;46.052;12.540;2023-11-19T05:14:48;6.50;90.80
40932;DHT22;36257;46.052;12.540;2023-11-19T05:17:17;6.40;90.20
40932;DHT22;36257;46.052;12.540;2023-11-19T05:19:43;6.40;89.80
40932;DHT22;36257;46.052;12.540;2023-11-19T05:22:09;6.40;89.60
40932;DHT22;36257;46.052;12.540;2023-11-19T05:24:35;6.40;89.60
40932;DHT22;36257;46.052;12.540;2023-11-19T05:27:01;6.40;89.60
40932;DHT22;36257;46.052;12.540;2023-11-19T05:29:27;6.40;89.60
40932;DHT22;36257;46.052;12.540;2023-11-19T05:31:53;6.30;89.50
40932;DHT22;36257;46.052;12.540;2023-11-19T05:34:21;6.30;89.70
40932;DHT22;36257;46.052;12.540;2023-11-19T05:36:46;6.30;89.30
40932;DHT22;36257;46.052;12.540;2023-11-19T05:39:13;6.30;89.20
40932;DHT22;36257;46.052;12.540;2023-11-19T05:41:38;6.40;89.30
40932;DHT22;36257;46.052;12.540;2023-11-19T05:44:04;6.30;89.90
40932;DHT22;36257;46.052;12.540;2023-11-19T05:46:30;6.30;90.20
40932;DHT22;36257;46.052;12.540;2023-11-19T05:48:55;6.20;89.90
40932;DHT22;36257;46.052;12.540;2023-11-19T05:51:21;6.20;89.40
40932;DHT22;36257;46.052;12.540;2023-11-19T05:53:49;6.20;89.20
40932;DHT22;36257;46.052;12.540;2023-11-19T05:56:15;6.10;89.20
40932;DHT22;36257;46.052;12.540;2023-11-19T05:58:46;6.10;89.20
40932;DHT22;36257;46.052;12.540;2023-11-19T06:01:13;6.20;88.70
40932;DHT22;36257;46.052;12.540;2023-11-19T06:03:39;6.20;88.60
40932;DHT22;36257;46.052;12.540;2023-11-19T06:06:05;6.20;89.10
40932;DHT22;36257;46.052;12.540;2023-11-19T06:08:31;6.30;89.00
40932;DHT22;36257;46.052;12.540;2023-11-19T06:10:57;6.30;88.70
40932;DHT22;36257;46.052;12.540;2023-11-19T06:13:23;6.20;88.80
40932;DHT22;36257;46.052;12.540;2023-11-19T06:15:49;6.30;88.40
40932;DHT22;36257;46.052;12.540;2023-11-19T06:18:16;6.30;88.20
40932;DHT22;36257;46.052;12.540;2023-11-19T06:20:45;6.20;88.60
40932;DHT22;36257;46.052;12.540;2023-11-19T06:23:11;6.20;88.90
40932;DHT22;36257;46.052;12.540;2023-11-19T06:25:36;6.20;88.80
40932;DHT22;36257;46.052;12.540;2023-11-19T06:28:02;6.20;88.30
40932;DHT22;36257;46.052;12.540;2023-11-19T06:30:28;6.20;88.20
40932;DHT22;36257;46.052;12.540;2023-11-19T06:32:55;6.20;88.50
40932;DHT22;36257;46.052;12.540;2023-11-19T06:35:21;6.20;88.90
40932;DHT22;36257;46.052;12.540;2023-11-19T06:37:46;6.20;89.10
40932;DHT22;36257;46.052;12.540;2023-11-19T06:40:12;6.20;89.40
40932;DHT22;36257;46.052;12.540;2023-11-19T06:42:38;6.20;89.50
40932;DHT22;36257;46.052;12.540;2023-11-19T06:45:04;6.20;89.50
40932;DHT22;36257;46.052;12.540;2023-11-19T06:47:31;6.20;89.90
40932;DHT22;36257;46.052;12.540;2023-11-19T06:49:57;6.20;90.00
40932;DHT22;36257;46.052;12.540;2023-11-19T06:52:23;6.20;89.80
40932;DHT22;36257;46.052;12.540;2023-11-19T06:54:49;6.30;89.50
40932;DHT22;36257;46.052;12.540;2023-11-19T07:05:01;6.20;90.60
40932;DHT22;36257;46.052;12.540;2023-11-19T07:07:27;6.20;90.50
40932;DHT22;36257;46.052;12.540;2023-11-19T07:09:52;6.30;90.80
40932;DHT22;36257;46.052;12.540;2023-11-19T07:12:18;6.30;91.20
40932;DHT22;36257;46.052;12.540;2023-11-19T07:14:44;6.50;91.30
40932;DHT22;36257;46.052;12.540;2023-11-19T07:17:09;6.60;91.20
40932;DHT22;36257;46.052;12.540;2023-11-19T07:19:35;6.80;91.10
40932;DHT22;36257;46.052;12.540;2023-11-19T07:22:03;6.90;91.10
40932;DHT22;36257;46.052;12.540;2023-11-19T07:24:29;7.00;90.70
40932;DHT22;36257;46.052;12.540;2023-11-19T07:26:54;7.10;90.30
40932;DHT22;36257;46.052;12.540;2023-11-19T07:29:20;7.20;89.80
40932;DHT22;36257;46.052;12.540;2023-11-19T07:31:49;7.20;89.40
40932;DHT22;36257;46.052;12.540;2023-11-19T07:34:14;7.30;89.20
40932;DHT22;36257;46.052;12.540;2023-11-19T07:36:40;7.60;89.30
40932;DHT22;36257;46.052;12.540;2023-11-19T07:39:06;7.80;89.30
40932;DHT22;36257;46.052;12.540;2023-11-19T07:41:32;8.10;89.30
40932;DHT22;36257;46.052;12.540;2023-11-19T07:43:58;8.20;89.70
40932;DHT22;36257;46.052;12.540;2023-11-19T07:46:24;8.40;89.20
40932;DHT22;36257;46.052;12.540;2023-11-19T07:48:51;8.60;88.30
40932;DHT22;36257;46.052;12.540;2023-11-19T07:51:17;8.80;87.20
40932;DHT22;36257;46.052;12.540;2023-11-19T07:53:43;8.90;85.50
40932;DHT22;36257;46.052;12.540;2023-11-19T07:56:09;9.00;84.00
40932;DHT22;36257;46.052;12.540;2023-11-19T07:58:34;9.30;84.00
40932;DHT22;36257;46.052;12.540;2023-11-19T08:01:00;9.50;82.30
40932;DHT22;36257;46.052;12.540;2023-11-19T08:03:27;9.80;78.50
40932;DHT22;36257;46.052;12.540;2023-11-19T08:05:55;10.00;76.70
40932;DHT22;36257;46.052;12.540;2023-11-19T08:08:24;10.30;76.20
40932;DHT22;36257;46.052;12.540;2023-11-19T08:10:50;10.70;76.60
40932;DHT22;36257;46.052;12.540;2023-11-19T08:13:18;11.00;75.20
40932;DHT22;36257;46.052;12.540;2023-11-19T08:15:43;11.30;74.90
40932;DHT22;36257;46.052;12.540;2023-11-19T08:18:09;11.60;75.60
40932;DHT22;36257;46.052;12.540;2023-11-19T08:20:34;11.80;75.60
40932;DHT22;36257;46.052;12.540;2023-11-19T08:23:02;12.10;73.10
40932;DHT22;36257;46.052;12.540;2023-11-19T08:25:29;12.40;73.00
40932;DHT22;36257;46.052;12.540;2023-11-19T08:27:54;12.70;72.40
40932;DHT22;36257;46.052;12.540;2023-11-19T08:30:20;13.00;73.10
40932;DHT22;36257;46.052;12.540;2023-11-19T08:32:46;13.20;72.80
40932;DHT22;36257;46.052;12.540;2023-11-19T08:35:11;13.50;71.20
40932;DHT22;36257;46.052;12.540;2023-11-19T08:37:37;13.70;69.80
40932;DHT22;36257;46.052;12.540;2023-11-19T08:40:04;13.90;69.20
40932;DHT22;36257;46.052;12.540;2023-11-19T08:42:30;14.20;69.20
40932;DHT22;36257;46.052;12.540;2023-11-19T08:44:56;14.30;68.00
40932;DHT22;36257;46.052;12.540;2023-11-19T08:47:22;14.40;63.90
40932;DHT22;36257;46.052;12.540;2023-11-19T08:49:51;14.30;67.90
40932;DHT22;36257;46.052;12.540;2023-11-19T08:52:20;14.00;68.70
40932;DHT22;36257;46.052;12.540;2023-11-19T08:54:46;13.80;68.60
40932;DHT22;36257;46.052;12.540;2023-11-19T08:57:12;13.50;70.40
40932;DHT22;36257;46.052;12.540;2023-11-19T08:59:37;13.40;70.20
40932;DHT22;36257;46.052;12.540;2023-11-19T09:02:06;13.30;69.80
40932;DHT22;36257;46.052;12.540;2023-11-19T09:04:33;13.10;69.90
40932;DHT22;36257;46.052;12.540;2023-11-19T09:06:59;13.10;72.10
40932;DHT22;36257;46.052;12.540;2023-11-19T09:09:25;13.10;72.90
40932;DHT22;36257;46.052;12.540;2023-11-19T09:14:26;13.00;72.90
40932;DHT22;36257;46.052;12.540;2023-11-19T09:16:52;12.90;72.40
40932;DHT22;36257;46.052;12.540;2023-11-19T09:19:18;12.90;70.40
40932;DHT22;36257;46.052;12.540;2023-11-19T09:21:44;12.90;70.10
40932;DHT22;36257;46.052;12.540;2023-11-19T09:24:10;12.90;70.10
40932;DHT22;36257;46.052;12.540;2023-11-19T09:26:36;12.80;73.40
40932;DHT22;36257;46.052;12.540;2023-11-19T09:29:02;12.80;74.30
40932;DHT22;36257;46.052;12.540;2023-11-19T09:31:27;12.90;74.50
40932;DHT22;36257;46.052;12.540;2023-11-19T09:33:53;13.00;73.20
40932;DHT22;36257;46.052;12.540;2023-11-19T09:36:19;13.00;72.20
40932;DHT22;36257;46.052;12.540;2023-11-19T09:38:45;12.80;72.30
40932;DHT22;36257;46.052;12.540;2023-11-19T09:41:10;12.90;73.50
40932;DHT22;36257;46.052;12.540;2023-11-19T09:43:42;12.90;75.30
40932;DHT22;36257;46.052;12.540;2023-11-19T09:46:13;12.90;78.50
40932;DHT22;36257;46.052;12.540;2023-11-19T09:48:41;12.80;80.10
40932;DHT22;36257;46.052;12.540;2023-11-19T09:51:08;12.80;79.30
40932;DHT22;36257;46.052;12.540;2023-11-19T09:53:35;12.70;79.30
40932;DHT22;36257;46.052;12.540;2023-11-19T09:56:02;12.70;80.30
40932;DHT22;36257;46.052;12.540;2023-11-19T09:58:29;12.70;79.00
40932;DHT22;36257;46.052;12.540;2023-11-19T10:00:57;12.80;78.80
40932;DHT22;36257;46.052;12.540;2023-11-19T10:03:25;13.10;78.60
40932;DHT22;36257;46.052;12.540;2023-11-19T10:05:52;13.30;78.00
40932;DHT22;36257;46.052;12.540;2023-11-19T10:08:18;13.70;78.00
40932;DHT22;36257;46.052;12.540;2023-11-19T10:10:44;13.90;77.00
40932;DHT22;36257;46.052;12.540;2023-11-19T10:13:11;14.20;77.80
40932;DHT22;36257;46.052;12.540;2023-11-19T10:15:37;14.20;77.40
40932;DHT22;36257;46.052;12.540;2023-11-19T10:18:03;14.50;77.00
40932;DHT22;36257;46.052;12.540;2023-11-19T10:20:40;14.80;75.80
40932;DHT22;36257;46.052;12.540;2023-11-19T10:23:06;15.20;72.80
40932;DHT22;36257;46.052;12.540;2023-11-19T10:25:33;15.70;73.40
40932;DHT22;36257;46.052;12.540;2023-11-19T11:02:50;17.50;62.20
40932;DHT22;36257;46.052;12.540;2023-11-19T11:05:19;17.80;61.70
40932;DHT22;36257;46.052;12.540;2023-11-19T11:07:47;17.90;62.10
40932;DHT22;36257;46.052;12.540;2023-11-19T11:10:18;18.20;63.10
40932;DHT22;36257;46.052;12.540;2023-11-19T11:12:47;18.40;62.90
40932;DHT22;36257;46.052;12.540;2023-11-19T11:15:17;18.60;62.60
40932;DHT22;36257;46.052;12.540;2023-11-19T11:17:45;18.80;61.90
40932;DHT22;36257;46.052;12.540;2023-11-19T11:20:11;18.90;62.30
40932;DHT22;36257;46.052;12.540;2023-11-19T11:22:54;19.10;62.10
40932;DHT22;36257;46.052;12.540;2023-11-19T11:26:17;19.10;59.50
40932;DHT22;36257;46.052;12.540;2023-11-19T11:31:08;19.20;62.90
40932;DHT22;36257;46.052;12.540;2023-11-19T11:36:19;19.00;60.10
40932;DHT22;36257;46.052;12.540;2023-11-19T11:38:48;18.70;61.40
40932;DHT22;36257;46.052;12.540;2023-11-19T11:41:24;18.20;61.60
40932;DHT22;36257;46.052;12.540;2023-11-19T11:43:55;18.10;62.00
40932;DHT22;36257;46.052;12.540;2023-11-19T11:49:04;17.70;61.90
40932;DHT22;36257;46.052;12.540;2023-11-19T11:54:31;17.20;64.10
40932;DHT22;36257;46.052;12.540;2023-11-19T11:57:10;17.10;63.40
40932;DHT22;36257;46.052;12.540;2023-11-19T11:59:43;16.90;64.80
40932;DHT22;36257;46.052;12.540;2023-11-19T12:02:15;16.70;65.20
40932;DHT22;36257;46.052;12.540;2023-11-19T12:04:42;16.80;65.60
40932;DHT22;36257;46.052;12.540;2023-11-19T12:07:16;16.80;64.90
40932;DHT22;36257;46.052;12.540;2023-11-19T12:09:53;16.90;64.30
40932;DHT22;36257;46.052;12.540;2023-11-19T12:12:27;17.10;63.90
40932;DHT22;36257;46.052;12.540;2023-11-19T12:15:05;17.30;65.10
40932;DHT22;36257;46.052;12.540;2023-11-19T12:20:05;17.60;62.00
40932;DHT22;36257;46.052;12.540;2023-11-19T12:22:36;17.70;62.00
40932;DHT22;36257;46.052;12.540;2023-11-19T12:25:02;17.90;61.20
40932;DHT22;36257;46.052;12.540;2023-11-19T12:27:30;18.10;63.00
40932;DHT22;36257;46.052;12.540;2023-11-19T12:29:55;18.60;62.60
40932;DHT22;36257;46.052;12.540;2023-11-19T12:32:22;18.80;60.30
40932;DHT22;36257;46.052;12.540;2023-11-19T12:34:48;19.00;60.80
40932;DHT22;36257;46.052;12.540;2023-11-19T12:37:14;19.20;59.90
40932;DHT22;36257;46.052;12.540;2023-11-19T12:39:40;19.50;60.30
40932;DHT22;36257;46.052;12.540;2023-11-19T12:42:06;19.70;59.20
40932;DHT22;36257;46.052;12.540;2023-11-19T12:44:32;19.70;57.60
40932;DHT22;36257;46.052;12.540;2023-11-19T12:47:00;19.60;60.10
40932;DHT22;36257;46.052;12.540;2023-11-19T12:49:27;19.70;59.30
40932;DHT22;36257;46.052;12.540;2023-11-19T12:51:53;19.30;58.90
40932;DHT22;36257;46.052;12.540;2023-11-19T12:54:18;19.10;59.40
40932;DHT22;36257;46.052;12.540;2023-11-19T12:56:53;19.20;58.90
40932;DHT22;36257;46.052;12.540;2023-11-19T12:59:19;19.50;60.10
40932;DHT22;36257;46.052;12.540;2023-11-19T13:01:58;19.70;58.10
40932;DHT22;36257;46.052;12.540;2023-11-19T13:04:27;19.70;58.40
40932;DHT22;36257;46.052;12.540;2023-11-19T13:06:53;20.10;59.20
40932;DHT22;36257;46.052;12.540;2023-11-19T13:09:26;20.40;59.20
40932;DHT22;36257;46.052;12.540;2023-11-19T13:11:53;20.30;56.70
40932;DHT22;36257;46.052;12.540;2023-11-19T13:14:20;20.20;57.00
40932;DHT22;36257;46.052;12.540;2023-11-19T13:16:46;20.40;58.80
40932;DHT22;36257;46.052;12.540;2023-11-19T13:19:15;20.70;57.60
40932;DHT22;36257;46.052;12.540;2023-11-19T13:21:44;20.80;56.30
40932;DHT22;36257;46.052;12.540;2023-11-19T13:24:13;21.00;57.10
40932;DHT22;36257;46.052;12.540;2023-11-19T13:26:38;21.20;57.30
40932;DHT22;36257;46.052;12.540;2023-11-19T13:29:04;21.30;54.80
40932;DHT22;36257;46.052;12.540;2023-11-19T13:31:30;20.90;55.30
40932;DHT22;36257;46.052;12.540;2023-11-19T13:33:55;20.80;56.00
40932;DHT22;36257;46.052;12.540;2023-11-19T13:36:22;20.60;54.10
40932;DHT22;36257;46.052;12.540;2023-11-19T13:38:47;20.40;56.50
40932;DHT22;36257;46.052;12.540;2023-11-19T13:41:13;20.20;56.90
40932;DHT22;36257;46.052;12.540;2023-11-19T13:43:39;20.10;58.00
40932;DHT22;36257;46.052;12.540;2023-11-19T13:46:05;19.80;57.90
40932;DHT22;36257;46.052;12.540;2023-11-19T13:48:31;19.60;59.50
40932;DHT22;36257;46.052;12.540;2023-11-19T13:50:57;19.20;57.90
40932;DHT22;36257;46.052;12.540;2023-11-19T13:53:23;19.10;59.10
40932;DHT22;36257;46.052;12.540;2023-11-19T13:55:49;19.10;59.80
40932;DHT22;36257;46.052;12.540;2023-11-19T13:58:15;19.00;58.70
40932;DHT22;36257;46.052;12.540;2023-11-19T14:00:42;18.80;59.00
40932;DHT22;36257;46.052;12.540;2023-11-19T14:03:09;18.50;60.50
40932;DHT22;36257;46.052;12.540;2023-11-19T14:05:35;18.30;60.50
40932;DHT22;36257;46.052;12.540;2023-11-19T14:08:01;18.10;60.70
40932;DHT22;36257;46.052;12.540;2023-11-19T14:10:27;17.90;60.20
40932;DHT22;36257;46.052;12.540;2023-11-19T14:12:52;17.80;59.80
40932;DHT22;36257;46.052;12.540;2023-11-19T14:15:18;17.70;60.00
40932;DHT22;36257;46.052;12.540;2023-11-19T14:17:44;17.70;61.30
40932;DHT22;36257;46.052;12.540;2023-11-19T14:20:10;17.80;61.60
40932;DHT22;36257;46.052;12.540;2023-11-19T14:22:43;18.00;61.00
40932;DHT22;36257;46.052;12.540;2023-11-19T14:25:09;18.00;61.00
40932;DHT22;36257;46.052;12.540;2023-11-19T14:27:39;18.00;61.80
40932;DHT22;36257;46.052;12.540;2023-11-19T14:30:06;18.00;61.70
40932;DHT22;36257;46.052;12.540;2023-11-19T14:32:32;17.80;62.20
40932;DHT22;36257;46.052;12.540;2023-11-19T14:34:58;17.60;62.50
40932;DHT22;36257;46.052;12.540;2023-11-19T14:37:24;17.40;62.50
40932;DHT22;36257;46.052;12.540;2023-11-19T14:39:50;17.10;63.30
40932;DHT22;36257;46.052;12.540;2023-11-19T14:42:17;16.70;64.20
40932;DHT22;36257;46.052;12.540;2023-11-19T14:44:42;16.40;65.90
40932;DHT22;36257;46.052;12.540;2023-11-19T14:47:08;16.10;66.90
40932;DHT22;36257;46.052;12.540;2023-11-19T14:49:37;15.80;68.40
40932;DHT22;36257;46.052;12.540;2023-11-19T14:52:05;15.40;69.70
40932;DHT22;36257;46.052;12.540;2023-11-19T14:54:31;15.00;70.70
40932;DHT22;36257;46.052;12.540;2023-11-19T14:56:57;14.70;71.90
40932;DHT22;36257;46.052;12.540;2023-11-19T14:59:24;14.40;72.80
40932;DHT22;36257;46.052;12.540;2023-11-19T15:01:50;14.00;73.80
40932;DHT22;36257;46.052;12.540;2023-11-19T15:04:16;13.80;74.70
40932;DHT22;36257;46.052;12.540;2023-11-19T15:06:42;13.60;75.20
40932;DHT22;36257;46.052;12.540;2023-11-19T15:09:07;13.40;75.60
40932;DHT22;36257;46.052;12.540;2023-11-19T15:11:35;13.20;76.20
40932;DHT22;36257;46.052;12.540;2023-11-19T15:32:08;11.70;80.70
40932;DHT22;36257;46.052;12.540;2023-11-19T15:34:37;11.60;81.20
40932;DHT22;36257;46.052;12.540;2023-11-19T15:37:04;11.50;81.40
40932;DHT22;36257;46.052;12.540;2023-11-19T15:39:29;11.30;82.20
40932;DHT22;36257;46.052;12.540;2023-11-19T15:41:55;11.10;82.60
40932;DHT22;36257;46.052;12.540;2023-11-19T15:44:23;11.10;82.80
40932;DHT22;36257;46.052;12.540;2023-11-19T15:46:49;11.00;82.90
40932;DHT22;36257;46.052;12.540;2023-11-19T15:49:15;10.90;83.30
40932;DHT22;36257;46.052;12.540;2023-11-19T15:51:41;10.80;83.90
40932;DHT22;36257;46.052;12.540;2023-11-19T15:54:07;10.80;84.10
40932;DHT22;36257;46.052;12.540;2023-11-19T15:56:33;10.70;84.30
40932;DHT22;36257;46.052;12.540;2023-11-19T15:58:59;10.50;84.50
40932;DHT22;36257;46.052;12.540;2023-11-19T16:01:24;10.50;84.70
40932;DHT22;36257;46.052;12.540;2023-11-19T16:03:50;10.40;84.80
40932;DHT22;36257;46.052;12.540;2023-11-19T16:06:17;10.40;85.10
40932;DHT22;36257;46.052;12.540;2023-11-19T16:08:43;10.30;85.40
40932;DHT22;36257;46.052;12.540;2023-11-19T16:11:09;10.30;85.40
40932;DHT22;36257;46.052;12.540;2023-11-19T16:13:35;10.20;85.40
40932;DHT22;36257;46.052;12.540;2023-11-19T16:16:01;10.10;85.80
40932;DHT22;36257;46.052;12.540;2023-11-19T16:18:27;10.10;86.10
40932;DHT22;36257;46.052;12.540;2023-11-19T16:20:54;9.90;86.40
40932;DHT22;36257;46.052;12.540;2023-11-19T16:23:20;9.80;86.70
40932;DHT22;36257;46.052;12.540;2023-11-19T16:25:46;9.80;86.60
40932;DHT22;36257;46.052;12.540;2023-11-19T16:28:11;9.70;86.90
40932;DHT22;36257;46.052;12.540;2023-11-19T16:30:37;9.70;87.50
40932;DHT22;36257;46.052;12.540;2023-11-19T16:33:03;9.70;87.50
40932;DHT22;36257;46.052;12.540;2023-11-19T16:35:29;9.60;87.80
40932;DHT22;36257;46.052;12.540;2023-11-19T16:37:54;9.50;87.70
40932;DHT22;36257;46.052;12.540;2023-11-19T16:40:20;9.50;88.00
40932;DHT22;36257;46.052;12.540;2023-11-19T16:42:46;9.50;88.10